createdAt,value
2018-09-08T00:00:19.041Z,50.50
2018-09-08T00:02:45.022Z,50.50
2018-09-08T00:05:10.997Z,50.56
2018-09-08T00:07:37.022Z,50.61
2018-09-08T00:10:03.002Z,50.57
2018-09-08T00:12:28.983Z,50.67
2018-09-08T00:14:55.004Z,50.57
2018-09-08T00:17:20.981Z,50.51
2018-09-08T00:19:46.961Z,50.48
2018-09-08T00:22:12.943Z,50.51
2018-09-08T00:24:38.923Z,50.53
2018-09-08T00:27:04.911Z,50.54
2018-09-08T00:29:30.901Z,50.48
2018-09-08T00:31:56.879Z,50.49
2018-09-08T00:34:22.852Z,50.46
2018-09-08T00:36:48.835Z,50.44
2018-09-08T00:39:14.877Z,50.46
2018-09-08T00:41:40.888Z,50.42
2018-09-08T00:44:06.837Z,50.41
2018-09-08T00:46:32.817Z,50.41
2018-09-08T00:48:58.796Z,50.37
2018-09-08T00:51:24.769Z,50.40
2018-09-08T00:53:50.758Z,50.37
2018-09-08T00:56:16.744Z,50.39
2018-09-08T00:58:42.719Z,50.37
2018-09-08T01:01:08.735Z,50.37
2018-09-08T01:03:34.711Z,50.38
2018-09-08T01:06:00.689Z,50.36
2018-09-08T01:08:26.676Z,50.35
2018-09-08T01:10:52.653Z,50.32
2018-09-08T01:13:18.636Z,50.33
2018-09-08T01:15:44.623Z,50.31
2018-09-08T01:18:10.610Z,50.28
2018-09-08T01:20:36.589Z,50.27
2018-09-08T01:23:02.575Z,50.25
2018-09-08T01:25:28.559Z,50.24
2018-09-08T01:27:54.537Z,50.24
2018-09-08T01:30:20.520Z,50.22
2018-09-08T01:32:46.497Z,50.21
2018-09-08T01:35:12.478Z,50.22
2018-09-08T01:37:38.456Z,50.19
2018-09-08T01:40:04.443Z,50.19
2018-09-08T01:42:30.426Z,50.17
2018-09-08T01:44:56.396Z,50.17
2018-09-08T01:47:22.382Z,50.16
2018-09-08T01:49:48.367Z,50.15
2018-09-08T01:52:14.343Z,50.14
2018-09-08T01:54:40.361Z,50.13
2018-09-08T01:57:06.340Z,50.12
2018-09-08T01:59:32.320Z,50.11
2018-09-08T02:01:58.307Z,50.12
2018-09-08T02:04:24.287Z,50.10
2018-09-08T02:06:50.277Z,50.08
2018-09-08T02:09:16.264Z,50.13
2018-09-08T02:11:42.248Z,50.10
2018-09-08T02:14:08.232Z,50.07
2018-09-08T02:16:34.203Z,50.08
2018-09-08T02:19:00.184Z,50.08
2018-09-08T02:21:26.158Z,50.05
2018-09-08T02:23:52.154Z,50.05
2018-09-08T02:26:18.130Z,50.05
2018-09-08T02:28:44.110Z,50.04
2018-09-08T02:31:10.102Z,50.04
2018-09-08T02:33:36.083Z,50.02
2018-09-08T02:36:02.052Z,50.01
2018-09-08T02:38:28.029Z,49.98
2018-09-08T02:40:54.007Z,50.02
2018-09-08T02:43:19.989Z,49.99
2018-09-08T02:45:45.980Z,50.01
2018-09-08T02:48:11.957Z,50.00
2018-09-08T02:50:37.938Z,49.99
2018-09-08T02:53:03.952Z,49.97
2018-09-08T02:55:29.921Z,49.97
2018-09-08T02:57:55.907Z,49.98
2018-09-08T03:00:21.884Z,49.98
2018-09-08T03:02:47.923Z,49.92
2018-09-08T03:05:13.912Z,49.97
2018-09-08T03:07:39.883Z,49.97
2018-09-08T03:10:05.873Z,49.95
2018-09-08T03:12:31.895Z,49.96
2018-09-08T03:14:57.833Z,49.91
2018-09-08T03:17:23.820Z,49.91
2018-09-08T03:19:49.804Z,49.93
2018-09-08T03:22:15.778Z,49.94
2018-09-08T03:24:41.759Z,49.94
2018-09-08T03:27:07.747Z,49.93
2018-09-08T03:29:33.731Z,49.91
2018-09-08T03:31:59.711Z,49.92
2018-09-08T03:34:25.712Z,49.92
2018-09-08T03:36:51.711Z,49.92
2018-09-08T03:39:17.663Z,49.91
2018-09-08T03:41:43.645Z,49.89
2018-09-08T03:44:09.626Z,49.85
2018-09-08T03:46:35.604Z,49.80
2018-09-08T03:49:01.582Z,49.87
2018-09-08T03:51:27.552Z,49.86
2018-09-08T03:53:53.527Z,49.83
2018-09-08T03:56:19.502Z,49.86
2018-09-08T03:58:45.481Z,49.85
2018-09-08T04:01:11.460Z,49.80
2018-09-08T04:03:37.442Z,49.82
2018-09-08T04:06:03.422Z,49.73
2018-09-08T04:08:29.441Z,49.77
2018-09-08T04:10:55.398Z,49.85
2018-09-08T04:13:21.380Z,49.81
2018-09-08T04:15:47.363Z,49.81
2018-09-08T04:18:13.405Z,49.80
2018-09-08T04:20:39.315Z,49.76
2018-09-08T04:23:05.290Z,49.82
2018-09-08T04:25:31.269Z,49.82
2018-09-08T04:27:57.240Z,49.82
2018-09-08T04:30:23.217Z,49.80
2018-09-08T04:32:49.204Z,49.80
2018-09-08T04:35:15.193Z,49.81
2018-09-08T04:37:41.174Z,49.78
2018-09-08T04:40:07.159Z,49.67
2018-09-08T04:42:33.139Z,49.71
2018-09-08T04:44:59.118Z,49.78
2018-09-08T04:47:25.102Z,49.76
2018-09-08T04:49:51.082Z,49.78
2018-09-08T04:52:17.071Z,49.79
2018-09-08T04:54:43.050Z,49.76
2018-09-08T04:57:09.051Z,49.79
2018-09-08T04:59:35.031Z,49.74
2018-09-08T05:02:01.014Z,49.76
2018-09-08T05:04:26.996Z,49.74
2018-09-08T05:06:52.993Z,49.78
2018-09-08T05:09:18.963Z,49.75
2018-09-08T05:11:44.938Z,49.77
2018-09-08T05:14:10.924Z,49.71
2018-09-08T05:16:36.912Z,49.72
2018-09-08T05:19:02.893Z,49.75
2018-09-08T05:21:28.880Z,49.75
2018-09-08T05:23:54.868Z,49.75
2018-09-08T05:26:20.836Z,49.76
2018-09-08T05:28:46.818Z,49.77
2018-09-08T05:31:12.788Z,49.74
2018-09-08T05:33:38.772Z,49.72
2018-09-08T05:36:04.794Z,49.68
2018-09-08T05:38:30.770Z,49.68
2018-09-08T05:40:56.757Z,49.72
2018-09-08T05:43:22.779Z,49.74
2018-09-08T05:45:48.750Z,49.74
2018-09-08T05:48:14.731Z,49.69
2018-09-08T05:50:40.717Z,49.74
2018-09-08T05:53:06.692Z,49.71
2018-09-08T05:55:32.669Z,49.71
2018-09-08T05:57:58.692Z,49.73
2018-09-08T06:00:24.678Z,49.72
2018-09-08T06:02:50.661Z,49.73
2018-09-08T06:05:16.647Z,49.72
2018-09-08T06:07:42.626Z,49.70
2018-09-08T06:10:08.651Z,49.71
2018-09-08T06:12:34.592Z,49.72
2018-09-08T06:15:00.594Z,49.70
2018-09-08T06:17:26.558Z,49.72
2018-09-08T06:19:52.526Z,49.72
2018-09-08T06:22:18.512Z,49.72
2018-09-08T06:24:44.490Z,49.69
2018-09-08T06:27:10.475Z,49.69
2018-09-08T06:29:36.446Z,49.69
2018-09-08T06:32:02.431Z,49.71
2018-09-08T06:34:28.412Z,49.69
2018-09-08T06:36:54.397Z,49.69
2018-09-08T06:39:20.382Z,49.70
2018-09-08T06:41:46.370Z,49.68
2018-09-08T06:44:12.354Z,49.68
2018-09-08T06:46:38.332Z,49.68
2018-09-08T06:49:04.316Z,49.69
2018-09-08T06:51:30.300Z,49.67
2018-09-08T06:53:56.336Z,49.70
2018-09-08T06:56:22.326Z,49.68
2018-09-08T06:58:48.307Z,49.65
2018-09-08T07:01:14.282Z,49.67
2018-09-08T07:03:40.267Z,49.67
2018-09-08T07:06:06.238Z,49.70
2018-09-08T07:08:32.232Z,49.68
2018-09-08T07:10:58.204Z,49.66
2018-09-08T07:13:24.181Z,49.66
2018-09-08T07:15:50.190Z,49.65
2018-09-08T07:18:16.165Z,49.67
2018-09-08T07:20:42.144Z,49.66
2018-09-08T07:23:08.128Z,49.66
2018-09-08T07:25:34.115Z,49.65
2018-09-08T07:28:00.097Z,49.64
2018-09-08T07:30:26.117Z,49.63
2018-09-08T07:32:52.107Z,49.64
2018-09-08T07:35:18.054Z,49.62
2018-09-08T07:37:44.031Z,49.63
2018-09-08T07:40:10.010Z,49.61
2018-09-08T07:42:35.990Z,49.69
2018-09-08T07:45:01.969Z,49.66
2018-09-08T07:47:27.953Z,49.65
2018-09-08T07:49:53.961Z,49.65
2018-09-08T07:52:19.915Z,49.63
2018-09-08T07:54:45.889Z,49.65
2018-09-08T07:57:11.869Z,49.62
2018-09-08T07:59:37.857Z,49.65
2018-09-08T08:02:03.840Z,49.65
2018-09-08T08:04:29.827Z,49.63
2018-09-08T08:06:55.807Z,49.67
2018-09-08T08:09:21.777Z,49.64
2018-09-08T08:11:47.761Z,49.64
2018-09-08T08:14:13.733Z,49.63
2018-09-08T08:16:39.717Z,49.65
2018-09-08T08:19:05.694Z,49.62
2018-09-08T08:21:31.675Z,49.63
2018-09-08T08:23:57.660Z,49.70
2018-09-08T08:26:23.642Z,49.64
2018-09-08T08:28:49.621Z,49.62
2018-09-08T08:31:15.700Z,49.61
2018-09-08T08:33:41.641Z,49.65
2018-09-08T08:36:07.624Z,49.64
2018-09-08T08:38:33.636Z,49.60
2018-09-08T08:40:59.617Z,49.64
2018-09-08T08:43:25.656Z,49.63
2018-09-08T08:45:51.574Z,49.63
2018-09-08T08:48:17.560Z,49.60
2018-09-08T08:50:43.533Z,49.60
2018-09-08T08:53:09.527Z,49.64
2018-09-08T08:55:35.512Z,49.58
2018-09-08T08:58:01.519Z,49.60
2018-09-08T09:00:27.534Z,49.59
2018-09-08T09:02:53.504Z,49.74
2018-09-08T09:05:19.519Z,49.90
2018-09-08T09:07:45.510Z,49.93
2018-09-08T09:10:11.514Z,49.99
2018-09-08T09:12:37.495Z,50.02
2018-09-08T09:15:03.863Z,50.06
2018-09-08T09:17:29.475Z,50.08
2018-09-08T09:19:55.458Z,50.10
2018-09-08T09:22:21.441Z,50.01
2018-09-08T09:24:47.655Z,49.92
2018-09-08T09:27:13.431Z,49.97
2018-09-08T09:29:39.492Z,50.01
2018-09-08T09:32:05.623Z,50.08
2018-09-08T09:34:31.606Z,50.09
2018-09-08T09:36:57.600Z,50.11
2018-09-08T09:39:23.579Z,50.16
2018-09-08T09:41:49.556Z,50.23
2018-09-08T09:44:15.603Z,50.39
2018-09-08T09:46:41.520Z,50.30
2018-09-08T09:49:07.503Z,50.37
2018-09-08T09:51:33.499Z,50.37
2018-09-08T09:53:59.473Z,50.46
2018-09-08T09:56:25.477Z,50.51
2018-09-08T09:58:51.448Z,50.54
2018-09-08T10:01:17.434Z,50.58
2018-09-08T10:03:43.454Z,50.57
2018-09-08T10:06:09.433Z,50.62
2018-09-08T10:08:35.427Z,50.63
2018-09-08T10:11:01.408Z,50.59
2018-09-08T10:13:27.396Z,50.56
2018-09-08T10:15:53.372Z,50.65
2018-09-08T10:18:19.360Z,50.65
2018-09-08T10:20:45.352Z,50.77
2018-09-08T10:23:11.397Z,50.84
2018-09-08T10:25:37.353Z,50.64
2018-09-08T10:28:03.294Z,50.58
2018-09-08T10:30:29.365Z,50.67
2018-09-08T10:32:55.296Z,50.63
2018-09-08T10:35:21.282Z,50.74
2018-09-08T10:37:47.264Z,50.83
2018-09-08T10:40:13.324Z,50.97
2018-09-08T10:42:39.234Z,50.99
2018-09-08T10:45:05.217Z,51.00
2018-09-08T10:47:31.192Z,51.10
2018-09-08T10:49:57.184Z,51.11
2018-09-08T10:52:23.166Z,51.13
2018-09-08T10:54:49.178Z,51.04
2018-09-08T10:57:15.220Z,51.13
2018-09-08T10:59:41.218Z,51.11
2018-09-08T11:02:07.506Z,51.14
2018-09-08T11:04:33.289Z,51.09
2018-09-08T11:06:59.391Z,51.11
2018-09-08T11:09:25.385Z,51.09
2018-09-08T11:11:51.408Z,50.88
2018-09-08T11:14:17.396Z,50.89
2018-09-08T11:16:43.377Z,50.93
2018-09-08T11:19:09.351Z,51.07
2018-09-08T11:21:35.387Z,51.11
2018-09-08T11:24:01.390Z,50.90
2018-09-08T11:26:27.425Z,50.91
2018-09-08T11:28:53.403Z,50.99
2018-09-08T11:31:19.398Z,50.96
2018-09-08T11:33:45.410Z,50.91
2018-09-08T11:36:11.374Z,50.79
2018-09-08T11:38:37.357Z,50.73
2018-09-08T11:41:03.340Z,50.10
2018-09-08T11:43:29.324Z,50.01
2018-09-08T11:45:55.312Z,49.84
2018-09-08T11:48:21.298Z,49.77
2018-09-08T11:50:47.272Z,49.87
2018-09-08T11:53:13.259Z,49.86
2018-09-08T11:55:39.299Z,49.92
2018-09-08T11:58:05.238Z,50.02
2018-09-08T12:00:31.257Z,49.99
2018-09-08T12:02:57.280Z,49.99
2018-09-08T12:05:23.320Z,50.01
2018-09-08T12:07:49.312Z,50.05
2018-09-08T12:10:15.317Z,50.12
2018-09-08T12:12:41.313Z,50.16
2018-09-08T12:15:07.304Z,50.07
2018-09-08T12:17:33.292Z,50.21
2018-09-08T12:19:59.371Z,50.07
2018-09-08T12:22:25.363Z,50.08
2018-09-08T12:24:51.339Z,50.28
2018-09-08T12:27:17.350Z,50.04
2018-09-08T12:29:43.326Z,50.11
2018-09-08T12:32:09.305Z,50.17
2018-09-08T12:34:35.284Z,50.25
2018-09-08T12:37:01.301Z,50.31
2018-09-08T12:39:27.277Z,50.28
2018-09-08T12:41:53.271Z,50.34
2018-09-08T12:44:19.244Z,50.30
2018-09-08T12:46:45.242Z,50.35
2018-09-08T12:49:11.224Z,50.34
2018-09-08T12:51:37.212Z,50.30
2018-09-08T12:54:03.208Z,50.37
2018-09-08T12:56:29.204Z,50.42
2018-09-08T12:58:55.202Z,50.43
2018-09-08T13:01:21.202Z,50.24
2018-09-08T13:03:47.198Z,50.20
2018-09-08T13:06:13.188Z,50.17
2018-09-08T13:08:39.187Z,50.34
2018-09-08T13:11:05.169Z,50.38
2018-09-08T13:13:31.155Z,50.38
2018-09-08T13:15:57.130Z,50.37
2018-09-08T13:18:23.109Z,50.41
2018-09-08T13:20:49.083Z,50.37
2018-09-08T13:23:15.194Z,50.18
2018-09-08T13:25:41.177Z,50.08
2018-09-08T13:28:07.157Z,50.13
2018-09-08T13:30:33.174Z,50.08
2018-09-08T13:32:59.167Z,50.07
2018-09-08T13:35:25.165Z,49.98
2018-09-08T13:37:51.166Z,49.96
2018-09-08T13:40:17.164Z,50.03
2018-09-08T13:42:43.138Z,49.99
2018-09-08T13:45:09.122Z,50.00
2018-09-08T13:47:35.101Z,49.84
2018-09-08T13:50:01.081Z,49.94
2018-09-08T13:52:27.090Z,50.05
2018-09-08T13:54:53.085Z,49.93
2018-09-08T13:57:19.062Z,50.03
2018-09-08T13:59:45.057Z,50.06
2018-09-08T14:02:11.100Z,50.07
2018-09-08T14:04:37.078Z,50.14
2018-09-08T14:07:03.067Z,50.08
2018-09-08T14:09:29.046Z,50.06
2018-09-08T14:11:55.016Z,50.05
2018-09-08T14:14:20.992Z,50.07
2018-09-08T14:16:46.973Z,50.05
2018-09-08T14:19:12.956Z,50.06
2018-09-08T14:21:38.953Z,50.03
2018-09-08T14:24:04.967Z,50.01
2018-09-08T14:26:30.952Z,50.02
2018-09-08T14:28:56.929Z,50.01
2018-09-08T14:31:22.939Z,50.01
2018-09-08T14:33:48.891Z,49.97
2018-09-08T14:36:14.885Z,49.96
2018-09-08T14:38:40.856Z,49.95
2018-09-08T14:41:06.833Z,49.96
2018-09-08T14:43:32.817Z,49.96
2018-09-08T14:45:58.796Z,49.94
2018-09-08T14:48:24.773Z,49.96
2018-09-08T14:50:50.775Z,49.95
2018-09-08T14:53:16.753Z,49.96
2018-09-08T14:55:42.757Z,49.97
2018-09-08T14:58:08.776Z,49.95
2018-09-08T15:00:34.775Z,49.93
2018-09-08T15:03:00.796Z,49.96
2018-09-08T15:05:26.833Z,49.99
2018-09-08T15:07:52.812Z,49.98
2018-09-08T15:10:18.811Z,49.97
2018-09-08T15:12:44.837Z,49.96
2018-09-08T15:15:10.816Z,49.97
2018-09-08T15:17:36.815Z,49.95
2018-09-08T15:20:02.801Z,49.92
2018-09-08T15:22:28.779Z,49.86
2018-09-08T15:24:54.759Z,49.83
2018-09-08T15:27:20.741Z,49.77
2018-09-08T15:29:47.284Z,49.83
2018-09-08T15:32:13.249Z,49.81
2018-09-08T15:34:39.226Z,49.83
2018-09-08T15:37:05.206Z,49.83
2018-09-08T15:39:31.176Z,49.83
2018-09-08T15:41:57.171Z,49.82
2018-09-08T15:44:23.151Z,49.84
2018-09-08T15:46:49.140Z,49.82
2018-09-08T15:49:15.120Z,49.83
2018-09-08T15:51:41.259Z,49.83
2018-09-08T15:54:07.235Z,49.83
2018-09-08T15:56:33.219Z,49.78
2018-09-08T15:58:59.213Z,49.70
2018-09-08T16:01:25.194Z,49.74
2018-09-08T16:03:51.175Z,49.83
2018-09-08T16:06:17.160Z,49.84
2018-09-08T16:08:43.137Z,49.84
2018-09-08T16:11:09.153Z,49.83
2018-09-08T16:13:35.130Z,49.85
2018-09-08T16:16:01.133Z,49.84
2018-09-08T16:18:27.131Z,49.87
2018-09-08T16:20:53.192Z,49.84
2018-09-08T16:23:19.150Z,49.83
2018-09-08T16:25:45.141Z,49.81
2018-09-08T16:28:11.144Z,49.82
2018-09-08T16:30:37.156Z,49.83
2018-09-08T16:33:03.165Z,49.84
2018-09-08T16:35:29.197Z,49.85
2018-09-08T16:37:55.179Z,49.87
2018-09-08T16:40:21.194Z,49.87
2018-09-08T16:42:47.170Z,49.87
2018-09-08T16:45:13.157Z,49.91
2018-09-08T16:47:39.140Z,49.90
2018-09-08T16:50:05.204Z,49.92
2018-09-08T16:52:31.199Z,49.95
2018-09-08T16:54:57.148Z,49.95
2018-09-08T16:57:23.178Z,49.95
2018-09-08T16:59:49.184Z,49.97
2018-09-08T17:02:15.186Z,49.97
2018-09-08T17:04:41.192Z,49.98
2018-09-08T17:07:07.174Z,49.99
2018-09-08T17:09:33.156Z,50.00
2018-09-08T17:11:59.136Z,49.99
2018-09-08T17:14:25.148Z,50.02
2018-09-08T17:16:51.221Z,50.00
2018-09-08T17:19:17.200Z,49.99
2018-09-08T17:21:43.198Z,50.03
2018-09-08T17:24:09.184Z,50.00
2018-09-08T17:26:35.176Z,50.01
2018-09-08T17:29:01.415Z,50.02
2018-09-08T17:31:27.403Z,50.04
2018-09-08T17:33:53.400Z,50.03
2018-09-08T17:36:19.376Z,49.98
2018-09-08T17:38:45.422Z,49.99
2018-09-08T17:41:11.438Z,50.01
2018-09-08T17:43:37.413Z,50.00
2018-09-08T17:46:03.387Z,50.00
2018-09-08T17:48:29.379Z,50.35
2018-09-08T17:50:55.403Z,50.41
2018-09-08T17:53:21.377Z,50.44
2018-09-08T17:55:47.353Z,50.45
2018-09-08T17:58:13.351Z,50.63
2018-09-08T18:00:39.342Z,50.69
2018-09-08T18:03:05.367Z,50.70
2018-09-08T18:05:31.397Z,50.63
2018-09-08T18:07:57.400Z,50.72
2018-09-08T18:10:23.438Z,50.69
2018-09-08T18:12:49.489Z,50.60
2018-09-08T18:15:15.460Z,50.84
2018-09-08T18:17:41.464Z,50.88
2018-09-08T18:20:07.458Z,50.83
2018-09-08T18:22:33.449Z,50.84
2018-09-08T18:24:59.444Z,50.89
2018-09-08T18:27:25.440Z,50.70
2018-09-08T18:29:51.435Z,50.63
2018-09-08T18:32:17.433Z,50.60
2018-09-08T18:34:43.432Z,50.63
2018-09-08T18:37:09.419Z,50.57
2018-09-08T18:39:35.420Z,50.62
2018-09-08T18:42:02.423Z,50.67
2018-09-08T18:44:28.415Z,50.65
2018-09-08T18:46:54.393Z,50.60
2018-09-08T18:49:20.375Z,50.57
2018-09-08T18:51:46.352Z,50.50
2018-09-08T18:54:12.369Z,50.49
2018-09-08T18:56:38.399Z,50.47
2018-09-08T18:59:04.379Z,50.49
2018-09-08T19:01:30.389Z,50.74
2018-09-08T19:03:56.384Z,50.68
2018-09-08T19:06:22.367Z,50.77
2018-09-08T19:08:48.363Z,50.83
2018-09-08T19:11:14.364Z,50.87
2018-09-08T19:13:40.342Z,50.83
2018-09-08T19:16:06.326Z,50.82
2018-09-08T19:18:32.307Z,50.89
2018-09-08T19:20:58.304Z,50.91
2018-09-08T19:23:24.283Z,50.95
2018-09-08T19:25:50.284Z,50.96
2018-09-08T19:28:16.278Z,51.02
2018-09-08T19:30:42.253Z,50.76
2018-09-08T19:33:08.232Z,50.85
2018-09-08T19:35:34.247Z,50.93
2018-09-08T19:38:00.223Z,50.92
2018-09-08T19:40:26.202Z,50.97
2018-09-08T19:42:52.222Z,50.97
2018-09-08T19:45:18.196Z,51.04
2018-09-08T19:47:44.194Z,51.05
2018-09-08T19:50:10.176Z,51.09
2018-09-08T19:52:36.173Z,51.10
2018-09-08T19:55:02.199Z,51.10
2018-09-08T19:57:28.161Z,51.19
2018-09-08T19:59:54.143Z,51.21
2018-09-08T20:02:20.136Z,51.22
2018-09-08T20:04:46.127Z,51.11
2018-09-08T20:07:12.135Z,51.20
2018-09-08T20:09:38.184Z,51.22
2018-09-08T20:12:04.105Z,51.12
2018-09-08T20:14:30.100Z,51.19
2018-09-08T20:16:56.095Z,51.25
2018-09-08T20:19:22.342Z,51.27
2018-09-08T20:21:48.218Z,51.22
2018-09-08T20:24:14.212Z,51.25
2018-09-08T20:26:40.271Z,51.33
2018-09-08T20:29:06.197Z,51.37
2018-09-08T20:31:32.192Z,51.47
2018-09-08T20:33:58.184Z,51.38
2018-09-08T20:36:24.167Z,51.35
2018-09-08T20:38:50.147Z,51.41
2018-09-08T20:41:16.126Z,51.38
2018-09-08T20:43:42.116Z,51.45
2018-09-08T20:46:08.114Z,51.48
2018-09-08T20:48:34.086Z,51.51
2018-09-08T20:51:00.069Z,51.51
2018-09-08T20:53:26.193Z,51.38
2018-09-08T20:55:52.188Z,51.25
2018-09-08T20:58:18.182Z,51.35
2018-09-08T21:00:44.163Z,51.36
2018-09-08T21:03:10.150Z,51.36
2018-09-08T21:05:36.138Z,51.30
2018-09-08T21:08:02.136Z,51.25
2018-09-08T21:10:28.127Z,51.40
2018-09-08T21:12:54.126Z,51.55
2018-09-08T21:15:20.100Z,51.51
2018-09-08T21:17:46.094Z,51.44
2018-09-08T21:20:12.086Z,51.49
2018-09-08T21:22:38.098Z,51.50
2018-09-08T21:25:04.094Z,51.57
2018-09-08T21:27:30.075Z,51.66
2018-09-08T21:29:56.059Z,51.56
2018-09-08T21:32:22.032Z,51.54
2018-09-08T21:34:48.024Z,51.59
2018-09-08T21:37:14.052Z,51.50
2018-09-08T21:39:40.065Z,51.52
2018-09-08T21:42:06.281Z,51.61
2018-09-08T21:44:32.259Z,51.66
2018-09-08T21:46:58.232Z,51.67
2018-09-08T21:49:24.230Z,51.72
2018-09-08T21:51:50.229Z,51.74
2018-09-08T21:54:16.200Z,51.80
2018-09-08T21:56:42.194Z,51.77
2018-09-08T21:59:08.177Z,51.80
2018-09-08T22:01:34.154Z,51.74
2018-09-08T22:04:00.129Z,51.80
2018-09-08T22:06:26.113Z,51.58
2018-09-08T22:08:52.100Z,51.66
2018-09-08T22:11:18.084Z,51.72
2018-09-08T22:13:44.073Z,51.85
2018-09-08T22:16:10.055Z,51.72
2018-09-08T22:18:36.046Z,51.77
2018-09-08T22:21:02.021Z,51.73
2018-09-08T22:23:27.988Z,51.74
2018-09-08T22:25:53.969Z,51.76
2018-09-08T22:28:19.955Z,51.66
2018-09-08T22:30:45.943Z,51.47
2018-09-08T22:33:11.926Z,51.62
2018-09-08T22:35:37.907Z,51.60
2018-09-08T22:38:03.906Z,51.55
2018-09-08T22:40:29.897Z,51.47
2018-09-08T22:42:55.873Z,51.50
2018-09-08T22:45:21.852Z,51.47
2018-09-08T22:47:47.837Z,51.52
2018-09-08T22:50:13.814Z,51.49
2018-09-08T22:52:39.801Z,51.48
2018-09-08T22:55:05.781Z,51.45
2018-09-08T22:57:31.756Z,51.48
2018-09-08T22:59:57.744Z,51.44
2018-09-08T23:02:23.732Z,51.47
2018-09-08T23:04:49.713Z,51.48
2018-09-08T23:07:15.700Z,51.45
2018-09-08T23:09:41.686Z,51.43
2018-09-08T23:12:07.665Z,51.36
2018-09-08T23:14:33.654Z,51.36
2018-09-08T23:16:59.638Z,51.33
2018-09-08T23:19:25.607Z,51.33
2018-09-08T23:21:51.586Z,51.30
2018-09-08T23:24:17.570Z,51.33
2018-09-08T23:26:43.552Z,51.32
2018-09-08T23:29:09.525Z,51.33
2018-09-08T23:31:35.506Z,51.32
2018-09-08T23:34:01.483Z,51.27
2018-09-08T23:36:27.463Z,51.28
2018-09-08T23:38:53.438Z,51.27
2018-09-08T23:41:19.422Z,51.22
2018-09-08T23:43:45.451Z,51.20
2018-09-08T23:46:11.426Z,51.24
2018-09-08T23:48:37.406Z,51.23
2018-09-08T23:51:03.385Z,51.21
2018-09-08T23:53:29.368Z,51.16
2018-09-08T23:55:55.344Z,51.21
2018-09-08T23:58:21.330Z,51.16
